createdAt,value
2018-02-20T00:00:43.003Z,17.27
2018-02-20T00:03:11.833Z,16.73
2018-02-20T00:05:40.020Z,17.13
2018-02-20T00:08:08.064Z,17.07
2018-02-20T00:10:36.111Z,17.97
2018-02-20T00:13:05.036Z,17.90
2018-02-20T00:15:33.131Z,18.50
2018-02-20T00:18:01.172Z,19.63
2018-02-20T00:20:29.351Z,17.43
2018-02-20T00:23:04.347Z,18.97
2018-02-20T00:25:32.398Z,16.30
2018-02-20T00:28:00.448Z,17.93
2018-02-20T00:30:28.499Z,18.33
2018-02-20T00:32:56.675Z,21.23
2018-02-20T00:35:24.724Z,18.10
2018-02-20T00:37:53.507Z,18.00
2018-02-20T00:40:22.427Z,18.43
2018-02-20T00:42:50.482Z,18.73
2018-02-20T00:45:19.395Z,19.50
2018-02-20T00:47:47.567Z,18.77
2018-02-20T00:50:15.696Z,18.43
2018-02-20T00:52:43.743Z,17.27
2018-02-20T00:55:11.959Z,20.23
2018-02-20T00:57:40.738Z,19.07
2018-02-20T01:00:08.847Z,19.47
2018-02-20T01:02:37.025Z,18.30
2018-02-20T01:05:05.095Z,20.50
2018-02-20T01:07:33.149Z,21.07
2018-02-20T01:10:02.063Z,18.97
2018-02-20T01:12:30.856Z,18.73
2018-02-20T01:14:58.903Z,21.13
2018-02-20T01:17:27.815Z,18.90
2018-02-20T01:19:55.975Z,18.57
2018-02-20T01:22:24.818Z,20.20
2018-02-20T01:24:52.992Z,20.63
2018-02-20T01:27:21.056Z,21.10
2018-02-20T01:29:49.108Z,19.70
2018-02-20T01:32:17.439Z,20.17
2018-02-20T01:34:45.512Z,19.07
2018-02-20T01:37:13.596Z,19.70
2018-02-20T01:39:42.512Z,21.27
2018-02-20T01:42:10.566Z,21.47
2018-02-20T01:44:39.420Z,19.60
2018-02-20T01:47:07.750Z,21.20
2018-02-20T01:49:36.546Z,20.37
2018-02-20T01:52:04.583Z,19.17
2018-02-20T01:54:32.859Z,20.33
2018-02-20T01:57:00.915Z,21.50
2018-02-20T01:59:28.976Z,20.00
2018-02-20T02:01:57.146Z,19.47
2018-02-20T02:04:25.236Z,18.83
2018-02-20T02:06:53.279Z,19.40
2018-02-20T02:09:21.448Z,18.73
2018-02-20T02:11:49.503Z,22.53
2018-02-20T02:14:18.336Z,20.87
2018-02-20T02:16:46.555Z,19.87
2018-02-20T02:19:15.371Z,20.80
2018-02-20T02:21:43.420Z,18.60
2018-02-20T02:24:11.691Z,19.93
2018-02-20T02:26:40.475Z,20.33
2018-02-20T02:29:08.557Z,21.57
2018-02-20T02:31:37.463Z,20.63
2018-02-20T02:34:05.530Z,20.10
2018-02-20T02:36:34.324Z,19.20
2018-02-20T02:39:02.556Z,19.60
2018-02-20T02:41:30.619Z,20.57
2018-02-20T02:43:58.708Z,21.10
2018-02-20T02:46:26.885Z,20.17
2018-02-20T02:48:55.068Z,19.83
2018-02-20T02:51:23.129Z,21.47
2018-02-20T02:53:51.432Z,19.53
2018-02-20T02:56:20.241Z,22.37
2018-02-20T02:58:48.296Z,19.90
2018-02-20T03:01:17.471Z,17.37
2018-02-20T03:03:45.676Z,19.03
2018-02-20T03:06:14.476Z,18.97
2018-02-20T03:08:43.388Z,19.93
2018-02-20T03:11:11.428Z,20.63
2018-02-20T03:13:40.179Z,20.97
2018-02-20T03:16:08.323Z,17.23
2018-02-20T03:18:36.351Z,17.30
2018-02-20T03:21:04.360Z,18.33
2018-02-20T03:23:32.557Z,20.40
2018-02-20T03:26:00.588Z,18.07
2018-02-20T03:28:29.347Z,16.37
2018-02-20T03:30:57.496Z,17.53
2018-02-20T03:33:25.553Z,16.90
2018-02-20T03:35:53.571Z,17.20
2018-02-20T03:38:21.708Z,19.23
2018-02-20T03:40:49.725Z,16.80
2018-02-20T03:43:17.727Z,15.10
2018-02-20T03:45:45.899Z,17.97
2018-02-20T03:48:13.920Z,17.80
2018-02-20T03:50:42.108Z,18.57
2018-02-20T03:53:10.248Z,20.23
2018-02-20T03:55:38.271Z,20.17
2018-02-20T03:58:07.023Z,17.93
2018-02-20T04:00:35.177Z,19.50
2018-02-20T04:03:03.271Z,18.77
2018-02-20T04:05:31.344Z,21.07
2018-02-20T04:07:59.496Z,21.50
2018-02-20T04:10:27.648Z,21.97
2018-02-20T04:12:56.436Z,25.43
2018-02-20T04:15:25.312Z,24.53
2018-02-20T04:17:53.310Z,25.30
2018-02-20T04:20:21.347Z,23.60
2018-02-20T04:22:50.260Z,24.27
2018-02-20T04:25:19.024Z,24.50
2018-02-20T04:27:47.067Z,24.73
2018-02-20T04:30:15.195Z,25.23
2018-02-20T04:32:43.987Z,23.80
2018-02-20T04:35:12.745Z,24.87
2018-02-20T04:37:40.902Z,24.43
2018-02-20T04:40:08.927Z,24.67
2018-02-20T04:42:37.691Z,24.10
2018-02-20T04:45:05.864Z,22.03
2018-02-20T04:47:33.886Z,24.93
2018-02-20T04:50:01.894Z,22.40
2018-02-20T04:52:30.175Z,24.57
2018-02-20T04:54:58.213Z,20.13
2018-02-20T04:57:26.232Z,20.97
2018-02-20T04:59:55.138Z,23.50
2018-02-20T05:02:23.904Z,21.67
2018-02-20T05:04:51.954Z,22.63
2018-02-20T05:07:20.127Z,23.83
2018-02-20T05:09:48.130Z,19.60
2018-02-20T05:12:16.887Z,16.33
2018-02-20T05:14:45.064Z,14.83
2018-02-20T05:17:13.099Z,13.30
2018-02-20T05:19:41.119Z,12.87
2018-02-20T05:22:09.304Z,12.10
2018-02-20T05:24:38.139Z,13.27
2018-02-20T05:27:06.156Z,13.83
2018-02-20T05:29:34.297Z,12.53
2018-02-20T05:32:02.316Z,12.20
2018-02-20T05:34:30.459Z,12.17
2018-02-20T05:36:58.599Z,14.23
2018-02-20T05:39:26.624Z,14.90
2018-02-20T05:41:54.643Z,15.73
2018-02-20T05:44:22.851Z,14.60
2018-02-20T05:46:50.883Z,13.87
2018-02-20T05:49:19.639Z,15.63
2018-02-20T05:51:47.904Z,13.40
2018-02-20T05:54:16.148Z,13.17
2018-02-20T05:56:44.340Z,14.30
2018-02-20T05:59:12.504Z,15.07
2018-02-20T06:01:40.598Z,14.07
2018-02-20T06:04:11.948Z,15.60
2018-02-20T06:06:45.869Z,15.23
2018-02-20T06:09:17.044Z,15.43
2018-02-20T06:11:46.067Z,13.07
2018-02-20T06:14:14.909Z,11.40
2018-02-20T06:16:44.011Z,12.20
2018-02-20T06:19:15.546Z,12.70
2018-02-20T06:21:46.597Z,12.90
2018-02-20T06:24:21.625Z,12.00
2018-02-20T06:26:50.242Z,12.87
2018-02-20T06:29:22.401Z,15.07
2018-02-20T06:31:50.858Z,12.93
2018-02-20T06:34:21.590Z,12.00
2018-02-20T06:36:53.509Z,13.13
2018-02-20T06:39:21.767Z,12.57
2018-02-20T06:41:56.607Z,12.30
2018-02-20T06:44:24.966Z,12.43
2018-02-20T06:46:56.877Z,13.47
2018-02-20T06:49:28.596Z,13.40
2018-02-20T06:51:59.522Z,14.20
2018-02-20T06:54:27.971Z,14.13
2018-02-20T06:56:55.983Z,12.50
2018-02-20T06:59:24.756Z,13.47
2018-02-20T07:01:52.774Z,13.97
2018-02-20T07:04:20.844Z,12.97
2018-02-20T07:06:48.864Z,13.40
2018-02-20T07:09:16.891Z,10.93
2018-02-20T07:11:44.912Z,13.00
2018-02-20T07:14:13.044Z,11.73
2018-02-20T07:16:41.220Z,14.37
2018-02-20T07:19:09.251Z,13.90
2018-02-20T07:21:38.016Z,13.60
2018-02-20T07:24:06.144Z,13.43
2018-02-20T07:26:34.319Z,11.97
2018-02-20T07:29:02.334Z,12.53
2018-02-20T07:31:30.367Z,13.47
2018-02-20T07:33:58.451Z,13.30
2018-02-20T07:36:26.480Z,14.10
2018-02-20T07:38:55.242Z,13.03
2018-02-20T07:41:23.275Z,12.70
2018-02-20T07:43:51.421Z,13.50
2018-02-20T07:46:20.177Z,15.37
2018-02-20T07:48:48.196Z,13.20
2018-02-20T07:51:16.231Z,12.67
2018-02-20T07:53:44.465Z,12.93
2018-02-20T07:56:12.903Z,11.70
2018-02-20T07:58:41.234Z,13.80
2018-02-20T08:01:10.132Z,14.97
2018-02-20T08:03:38.279Z,14.30
2018-02-20T08:06:06.420Z,16.00
2018-02-20T08:08:34.620Z,16.00
2018-02-20T08:11:03.044Z,15.13
2018-02-20T08:13:31.079Z,17.33
2018-02-20T08:15:59.105Z,15.60
2018-02-20T08:18:27.103Z,18.37
2018-02-20T08:20:55.895Z,17.33
2018-02-20T08:23:24.749Z,19.73
2018-02-20T08:25:52.767Z,18.57
2018-02-20T08:28:20.784Z,18.43
2018-02-20T08:30:48.807Z,20.50
2018-02-20T08:33:17.551Z,20.90
2018-02-20T08:35:45.597Z,20.60
2018-02-20T08:38:15.550Z,19.63
2018-02-20T08:40:43.560Z,17.90
2018-02-20T08:43:11.623Z,19.50
2018-02-20T08:45:40.371Z,19.33
2018-02-20T08:48:08.450Z,19.70
2018-02-20T08:50:36.479Z,18.00
2018-02-20T08:53:04.480Z,20.03
2018-02-20T08:55:32.503Z,19.60
2018-02-20T08:58:01.416Z,20.23
2018-02-20T09:00:29.423Z,20.57
2018-02-20T09:02:57.456Z,17.87
2018-02-20T09:05:25.486Z,19.33
2018-02-20T09:07:53.520Z,20.53
2018-02-20T09:10:21.557Z,20.00
2018-02-20T09:12:50.307Z,19.23
2018-02-20T09:15:18.348Z,20.03
2018-02-20T09:17:46.371Z,19.20
2018-02-20T09:20:15.131Z,18.77
2018-02-20T09:22:43.157Z,20.10
2018-02-20T09:25:11.163Z,20.00
2018-02-20T09:27:39.199Z,18.93
2018-02-20T09:30:07.248Z,22.73
2018-02-20T09:32:36.015Z,22.23
2018-02-20T09:35:04.065Z,21.90
2018-02-20T09:37:32.108Z,19.83
2018-02-20T09:40:00.119Z,19.87
2018-02-20T09:42:28.147Z,23.53
2018-02-20T09:44:56.167Z,20.43
2018-02-20T09:47:24.197Z,24.53
2018-02-20T09:49:52.228Z,20.50
2018-02-20T09:52:20.243Z,21.13
2018-02-20T09:54:48.326Z,20.30
2018-02-20T09:57:16.351Z,20.70
2018-02-20T09:59:44.519Z,20.23
2018-02-20T10:02:12.539Z,18.97
2018-02-20T10:04:40.668Z,21.60
2018-02-20T10:07:08.685Z,20.03
2018-02-20T10:09:36.699Z,19.53
2018-02-20T10:12:04.721Z,20.80
2018-02-20T10:14:32.802Z,21.83
2018-02-20T10:17:00.799Z,19.83
2018-02-20T10:19:28.820Z,21.27
2018-02-20T10:21:57.587Z,20.87
2018-02-20T10:24:25.721Z,22.17
2018-02-20T10:26:53.771Z,22.83
2018-02-20T10:29:21.796Z,21.70
2018-02-20T10:31:49.808Z,23.43
2018-02-20T10:34:17.920Z,21.40
2018-02-20T10:36:45.955Z,21.37
2018-02-20T10:39:13.999Z,19.90
2018-02-20T10:41:42.791Z,23.10
2018-02-20T10:44:12.451Z,20.37
2018-02-20T10:46:40.472Z,20.33
2018-02-20T10:49:08.523Z,21.13
2018-02-20T10:51:36.551Z,21.47
2018-02-20T10:54:04.644Z,19.83
2018-02-20T10:56:32.867Z,19.30
2018-02-20T10:59:00.939Z,21.57
2018-02-20T11:01:29.932Z,19.20
2018-02-20T11:03:59.022Z,20.70
2018-02-20T11:06:27.388Z,20.83
2018-02-20T11:08:55.565Z,16.40
2018-02-20T11:11:23.605Z,20.20
2018-02-20T11:13:51.679Z,21.70
2018-02-20T11:16:19.755Z,18.80
2018-02-20T11:18:47.803Z,18.83
2018-02-20T11:21:15.860Z,17.77
2018-02-20T11:23:44.683Z,18.93
2018-02-20T11:26:12.735Z,20.50
2018-02-20T11:28:40.775Z,21.30
2018-02-20T11:31:08.957Z,20.80
2018-02-20T11:33:37.797Z,19.37
2018-02-20T11:36:05.869Z,18.83
2018-02-20T11:38:33.886Z,19.87
2018-02-20T11:41:04.398Z,17.03
2018-02-20T11:43:32.843Z,18.90
2018-02-20T11:46:00.867Z,18.83
2018-02-20T11:48:28.896Z,19.90
2018-02-20T11:50:56.951Z,19.70
2018-02-20T11:53:25.034Z,19.80
2018-02-20T11:55:53.100Z,19.00
2018-02-20T11:58:21.148Z,19.50
2018-02-20T12:00:49.926Z,19.70
2018-02-20T12:03:18.852Z,18.33
2018-02-20T12:05:46.890Z,18.47
2018-02-20T12:08:15.656Z,18.50
2018-02-20T12:10:43.665Z,20.10
2018-02-20T12:13:12.429Z,19.20
2018-02-20T12:15:40.598Z,20.77
2018-02-20T12:18:08.707Z,20.40
2018-02-20T12:20:37.479Z,19.67
2018-02-20T12:23:06.256Z,20.57
2018-02-20T12:25:34.295Z,22.13
2018-02-20T12:28:02.376Z,19.40
2018-02-20T12:30:30.408Z,19.67
2018-02-20T12:32:58.519Z,22.40
2018-02-20T12:35:26.573Z,21.03
2018-02-20T12:37:54.676Z,19.17
2018-02-20T12:40:22.760Z,18.93
2018-02-20T12:42:50.920Z,20.70
2018-02-20T12:45:18.950Z,18.27
2018-02-20T12:47:46.961Z,21.40
2018-02-20T12:50:14.992Z,19.63
2018-02-20T12:52:43.011Z,17.93
2018-02-20T12:55:11.020Z,20.27
2018-02-20T12:57:39.772Z,18.53
2018-02-20T13:00:07.784Z,19.90
2018-02-20T13:02:35.852Z,20.73
2018-02-20T13:05:04.822Z,19.20
2018-02-20T13:07:32.872Z,21.43
2018-02-20T13:10:00.922Z,20.77
2018-02-20T13:12:29.068Z,19.23
2018-02-20T13:14:57.873Z,22.90
2018-02-20T13:17:25.904Z,18.27
2018-02-20T13:19:53.920Z,18.97
2018-02-20T13:22:21.942Z,20.47
2018-02-20T13:24:49.959Z,20.33
2018-02-20T13:27:17.971Z,19.30
2018-02-20T13:29:46.019Z,19.97
2018-02-20T13:32:14.055Z,20.93
2018-02-20T13:34:42.871Z,19.03
2018-02-20T13:37:10.888Z,19.63
2018-02-20T13:39:38.928Z,21.23
2018-02-20T13:42:06.980Z,20.83
2018-02-20T13:44:35.077Z,19.23
2018-02-20T13:47:03.112Z,20.63
2018-02-20T13:49:31.887Z,21.53
2018-02-20T13:52:00.635Z,21.53
2018-02-20T13:54:28.678Z,19.03
2018-02-20T13:56:56.695Z,19.33
2018-02-20T13:59:24.715Z,21.20
2018-02-20T14:01:52.751Z,19.83
2018-02-20T14:04:20.883Z,19.40
2018-02-20T14:06:49.039Z,18.30
2018-02-20T14:09:17.067Z,19.87
2018-02-20T14:11:45.104Z,18.37
2018-02-20T14:14:13.155Z,20.03
2018-02-20T14:16:41.931Z,18.90
2018-02-20T14:19:10.703Z,23.00
2018-02-20T14:21:39.467Z,18.70
2018-02-20T14:24:07.624Z,19.60
2018-02-20T14:26:40.023Z,19.90
2018-02-20T14:29:08.535Z,20.87
2018-02-20T14:31:37.857Z,20.90
2018-02-20T14:34:06.039Z,21.97
2018-02-20T14:36:34.084Z,23.70
2018-02-20T14:39:03.023Z,20.43
2018-02-20T14:41:31.048Z,25.27
2018-02-20T14:44:00.053Z,23.20
2018-02-20T14:46:28.928Z,21.73
2018-02-20T14:48:57.691Z,19.90
2018-02-20T14:51:25.698Z,22.40
2018-02-20T14:53:54.665Z,19.77
2018-02-20T14:56:22.684Z,22.07
2018-02-20T14:58:50.719Z,21.13
2018-02-20T15:01:18.860Z,21.17
2018-02-20T15:03:46.915Z,19.20
2018-02-20T15:06:14.948Z,22.83
2018-02-20T15:08:43.960Z,21.90
2018-02-20T15:11:12.093Z,22.87
2018-02-20T15:13:40.248Z,26.93
2018-02-20T15:16:08.405Z,38.43
2018-02-20T15:18:36.419Z,31.20
2018-02-20T15:21:04.458Z,31.30
2018-02-20T15:23:32.661Z,24.67
2018-02-20T15:26:00.680Z,31.00
2018-02-20T15:28:28.692Z,33.30
2018-02-20T15:30:56.844Z,27.00
2018-02-20T15:33:24.918Z,27.00
2018-02-20T15:35:52.944Z,22.80
2018-02-20T15:38:21.827Z,26.17
2018-02-20T15:40:50.003Z,37.50
2018-02-20T15:43:18.251Z,32.67
2018-02-20T15:45:46.524Z,23.60
2018-02-20T15:48:14.556Z,20.97
2018-02-20T15:50:42.573Z,21.10
2018-02-20T15:53:10.739Z,22.33
2018-02-20T15:55:38.775Z,21.90
2018-02-20T15:58:06.793Z,21.07
2018-02-20T16:00:34.947Z,20.73
2018-02-20T16:03:02.980Z,20.30
2018-02-20T16:05:31.728Z,22.67
2018-02-20T16:07:59.877Z,20.10
2018-02-20T16:10:28.075Z,21.13
2018-02-20T16:12:56.119Z,21.77
2018-02-20T16:15:24.416Z,22.27
2018-02-20T16:17:52.427Z,21.80
2018-02-20T16:20:20.596Z,23.37
2018-02-20T16:22:48.756Z,21.10
2018-02-20T16:25:16.756Z,24.40
2018-02-20T16:27:45.516Z,22.00
2018-02-20T16:30:13.672Z,18.87
2018-02-20T16:32:41.694Z,22.20
2018-02-20T16:35:10.458Z,20.47
2018-02-20T16:37:38.605Z,20.70
2018-02-20T16:40:06.623Z,18.83
2018-02-20T16:42:35.388Z,19.93
2018-02-20T16:45:03.534Z,23.20
2018-02-20T16:47:32.865Z,21.37
2018-02-20T16:50:00.894Z,22.50
2018-02-20T16:52:29.056Z,21.60
2018-02-20T16:54:57.140Z,22.60
2018-02-20T16:57:25.164Z,22.47
2018-02-20T16:59:53.919Z,21.10
2018-02-20T17:02:23.348Z,20.77
2018-02-20T17:04:51.749Z,21.03
2018-02-20T17:07:20.068Z,23.27
2018-02-20T17:09:48.284Z,22.83
2018-02-20T17:12:17.104Z,22.40
2018-02-20T17:14:47.287Z,20.23
2018-02-20T17:17:18.317Z,21.97
2018-02-20T17:19:48.937Z,19.30
2018-02-20T17:22:20.465Z,22.40
2018-02-20T17:24:49.307Z,19.83
2018-02-20T17:27:17.531Z,20.93
2018-02-20T17:29:45.588Z,20.10
2018-02-20T17:32:14.506Z,21.37
2018-02-20T17:43:32.655Z,19.50
2018-02-20T17:46:00.799Z,19.40
2018-02-20T17:48:28.828Z,20.73
2018-02-20T17:50:57.868Z,20.90
2018-02-20T17:53:28.712Z,18.90
2018-02-20T17:55:56.764Z,21.53
2018-02-20T17:58:28.083Z,21.17
2018-02-20T18:00:56.396Z,19.30
2018-02-20T18:03:24.579Z,20.27
2018-02-20T18:05:52.880Z,19.20
2018-02-20T18:14:08.187Z,21.57
2018-02-20T18:16:36.808Z,18.60
2018-02-20T18:19:05.547Z,21.27
2018-02-20T18:21:33.739Z,20.70
2018-02-20T18:24:01.899Z,17.80
2018-02-20T18:26:30.340Z,21.40
2018-02-20T18:28:59.248Z,21.20
2018-02-20T18:31:27.282Z,18.80
2018-02-20T18:33:56.123Z,20.60
2018-02-20T18:36:24.281Z,20.50
2018-02-20T18:38:52.312Z,19.90
2018-02-20T18:41:20.344Z,19.10
2018-02-20T18:43:48.521Z,19.30
2018-02-20T18:46:17.830Z,20.47
2018-02-20T18:48:45.839Z,22.10
2018-02-20T18:51:14.731Z,18.47
2018-02-20T18:53:43.703Z,19.93
2018-02-20T18:56:11.723Z,20.93
2018-02-20T18:58:39.884Z,20.77
2018-02-20T19:01:08.641Z,18.70
2018-02-20T19:03:36.784Z,19.87
2018-02-20T19:06:04.944Z,20.30
2018-02-20T19:08:33.051Z,19.87
2018-02-20T19:11:01.077Z,18.97
2018-02-20T19:13:29.288Z,20.97
2018-02-20T19:15:57.467Z,19.73
2018-02-20T19:18:25.510Z,20.10
2018-02-20T19:20:53.639Z,20.10
2018-02-20T19:23:21.755Z,20.30
2018-02-20T19:25:49.763Z,21.03
2018-02-20T19:28:17.918Z,23.50
2018-02-20T19:30:45.943Z,21.87
2018-02-20T19:33:14.763Z,22.77
2018-02-20T19:35:42.907Z,22.07
2018-02-20T19:38:10.932Z,20.87
2018-02-20T19:40:38.963Z,23.10
2018-02-20T19:43:07.851Z,23.63
2018-02-20T19:45:36.627Z,22.73
2018-02-20T19:48:04.719Z,21.57
2018-02-20T19:50:33.613Z,25.73
2018-02-20T19:53:02.387Z,24.30
2018-02-20T19:55:31.139Z,25.10
2018-02-20T19:57:59.284Z,23.57
2018-02-20T20:00:27.344Z,23.83
2018-02-20T20:02:55.360Z,24.80
2018-02-20T20:05:23.531Z,25.90
2018-02-20T20:07:51.544Z,25.67
2018-02-20T20:10:20.323Z,25.93
2018-02-20T20:12:48.656Z,25.17
2018-02-20T20:15:16.691Z,26.17
2018-02-20T20:17:45.571Z,24.23
2018-02-20T20:20:13.719Z,26.60
2018-02-20T20:22:41.727Z,25.40
2018-02-20T20:25:10.491Z,23.33
2018-02-20T20:27:38.629Z,25.47
2018-02-20T20:30:06.694Z,27.33
2018-02-20T20:32:34.722Z,27.47
2018-02-20T20:35:02.994Z,26.53
2018-02-20T20:37:31.024Z,26.87
2018-02-20T20:39:59.043Z,28.50
2018-02-20T20:42:27.190Z,25.70
2018-02-20T20:44:55.211Z,26.73
2018-02-20T20:47:23.979Z,23.43
2018-02-20T20:49:52.127Z,25.20
2018-02-20T20:52:20.148Z,25.77
2018-02-20T20:54:48.900Z,24.10
2018-02-20T20:57:17.044Z,23.80
2018-02-20T20:59:45.088Z,22.87
2018-02-20T21:02:13.103Z,24.83
2018-02-20T21:04:41.283Z,25.80
2018-02-20T21:07:09.325Z,25.73
2018-02-20T21:09:37.346Z,24.73
2018-02-20T21:12:05.496Z,22.80
2018-02-20T21:14:33.556Z,24.30
2018-02-20T21:17:01.616Z,26.30
2018-02-20T21:19:29.918Z,25.33
2018-02-20T21:21:57.920Z,25.03
2018-02-20T21:24:26.028Z,22.77
2018-02-20T21:26:54.352Z,26.57
2018-02-20T21:29:22.380Z,24.77
2018-02-20T21:31:50.420Z,24.97
2018-02-20T21:34:19.421Z,23.70
2018-02-20T21:36:48.212Z,25.60
2018-02-20T21:39:16.991Z,25.03
2018-02-20T21:41:45.166Z,21.50
2018-02-20T21:44:13.316Z,25.40
2018-02-20T21:46:41.362Z,25.73
2018-02-20T21:49:09.519Z,23.90
2018-02-20T21:51:37.566Z,27.63
2018-02-20T21:54:06.423Z,23.80
2018-02-20T21:56:34.610Z,23.13
2018-02-20T21:59:02.652Z,25.83
2018-02-20T22:01:30.708Z,25.27
2018-02-20T22:03:58.943Z,24.13
2018-02-20T22:06:26.987Z,22.63
2018-02-20T22:08:55.027Z,25.80
2018-02-20T22:11:23.204Z,26.60
2018-02-20T22:13:51.315Z,23.53
2018-02-20T22:16:19.368Z,24.33
2018-02-20T22:18:47.547Z,23.13
2018-02-20T22:21:15.732Z,23.93
2018-02-20T22:23:43.780Z,22.60
2018-02-20T22:26:12.011Z,27.30
2018-02-20T22:28:40.055Z,25.93
2018-02-20T22:31:08.107Z,25.20
2018-02-20T22:33:36.331Z,24.33
2018-02-20T22:36:04.399Z,24.53
2018-02-20T22:38:32.443Z,25.93
2018-02-20T22:41:00.628Z,26.13
2018-02-20T22:43:28.792Z,22.77
2018-02-20T22:45:56.827Z,26.40
2018-02-20T22:48:25.003Z,24.53
2018-02-20T22:50:53.048Z,25.47
2018-02-20T22:53:21.911Z,22.90
2018-02-20T22:55:50.100Z,25.80
2018-02-20T22:58:18.152Z,27.40
2018-02-20T23:00:46.208Z,24.23
2018-02-20T23:03:14.382Z,25.10
2018-02-20T23:05:42.427Z,23.10
2018-02-20T23:08:11.211Z,27.53
2018-02-20T23:10:40.124Z,24.97
2018-02-20T23:13:08.232Z,24.37
2018-02-20T23:15:36.266Z,24.20
2018-02-20T23:18:04.459Z,25.00
2018-02-20T23:20:32.507Z,22.47
2018-02-20T23:23:00.693Z,25.23
2018-02-20T23:25:28.871Z,26.50
2018-02-20T23:27:56.911Z,25.77
2018-02-20T23:30:25.720Z,26.63
2018-02-20T23:32:53.892Z,21.70
2018-02-20T23:35:22.695Z,23.27
2018-02-20T23:37:50.880Z,21.70
2018-02-20T23:40:19.043Z,22.30
2018-02-20T23:42:47.132Z,24.57
2018-02-20T23:45:15.192Z,24.83
2018-02-20T23:47:43.371Z,22.63
2018-02-20T23:50:11.411Z,24.47
2018-02-20T23:52:40.187Z,24.90
2018-02-20T23:55:08.351Z,26.30
2018-02-20T23:57:36.400Z,23.63
